sensor_id;sensor_type;location;lat;lon;timestamp;temperature;humidity
73955;DHT22;62306;52.516;13.290;2022-10-16T00:00:41;15.30;91.30
73955;DHT22;62306;52.516;13.290;2022-10-16T00:03:09;15.40;91.20
73955;DHT22;62306;52.516;13.290;2022-10-16T00:05:39;15.40;91.20
73955;DHT22;62306;52.516;13.290;2022-10-16T00:08:06;15.40;91.10
73955;DHT22;62306;52.516;13.290;2022-10-16T00:10:35;15.40;91.30
73955;DHT22;62306;52.516;13.290;2022-10-16T00:13:03;15.50;91.10
73955;DHT22;62306;52.516;13.290;2022-10-16T00:15:30;15.50;91.00
73955;DHT22;62306;52.516;13.290;2022-10-16T00:17:57;15.50;91.00
73955;DHT22;62306;52.516;13.290;2022-10-16T00:20:24;15.50;91.00
73955;DHT22;62306;52.516;13.290;2022-10-16T00:22:51;15.50;91.00
73955;DHT22;62306;52.516;13.290;2022-10-16T00:25:18;15.50;91.00
73955;DHT22;62306;52.516;13.290;2022-10-16T00:27:46;15.50;91.10
73955;DHT22;62306;52.516;13.290;2022-10-16T00:30:13;15.50;91.10
73955;DHT22;62306;52.516;13.290;2022-10-16T00:32:40;15.50;91.10
73955;DHT22;62306;52.516;13.290;2022-10-16T00:35:07;15.40;91.10
73955;DHT22;62306;52.516;13.290;2022-10-16T00:37:34;15.50;91.20
73955;DHT22;62306;52.516;13.290;2022-10-16T00:40:00;15.40;91.20
73955;DHT22;62306;52.516;13.290;2022-10-16T00:42:27;15.40;91.20
73955;DHT22;62306;52.516;13.290;2022-10-16T00:44:57;15.40;91.20
73955;DHT22;62306;52.516;13.290;2022-10-16T00:47:27;15.50;91.20
73955;DHT22;62306;52.516;13.290;2022-10-16T00:49:59;15.50;91.20
73955;DHT22;62306;52.516;13.290;2022-10-16T00:52:27;15.50;91.10
73955;DHT22;62306;52.516;13.290;2022-10-16T00:54:54;15.50;91.40
73955;DHT22;62306;52.516;13.290;2022-10-16T00:57:22;15.60;91.10
73955;DHT22;62306;52.516;13.290;2022-10-16T00:59:50;15.60;91.30
73955;DHT22;62306;52.516;13.290;2022-10-16T01:02:18;15.60;91.20
73955;DHT22;62306;52.516;13.290;2022-10-16T01:04:48;15.50;91.10
73955;DHT22;62306;52.516;13.290;2022-10-16T01:07:23;15.50;91.10
73955;DHT22;62306;52.516;13.290;2022-10-16T01:10:01;15.60;91.20
73955;DHT22;62306;52.516;13.290;2022-10-16T01:12:37;15.50;91.20
73955;DHT22;62306;52.516;13.290;2022-10-16T01:15:11;15.50;91.20
73955;DHT22;62306;52.516;13.290;2022-10-16T01:17:46;15.50;91.20
73955;DHT22;62306;52.516;13.290;2022-10-16T01:20:22;15.50;91.20
73955;DHT22;62306;52.516;13.290;2022-10-16T01:23:04;15.50;91.30
73955;DHT22;62306;52.516;13.290;2022-10-16T01:25:45;15.50;91.30
73955;DHT22;62306;52.516;13.290;2022-10-16T01:28:19;15.50;91.50
73955;DHT22;62306;52.516;13.290;2022-10-16T01:30:50;15.60;91.30
73955;DHT22;62306;52.516;13.290;2022-10-16T01:33:21;15.60;91.20
73955;DHT22;62306;52.516;13.290;2022-10-16T01:35:53;15.60;91.20
73955;DHT22;62306;52.516;13.290;2022-10-16T01:38:25;15.60;91.30
73955;DHT22;62306;52.516;13.290;2022-10-16T01:40:57;15.50;91.50
73955;DHT22;62306;52.516;13.290;2022-10-16T01:43:32;15.50;91.40
73955;DHT22;62306;52.516;13.290;2022-10-16T01:46:00;15.50;91.40
73955;DHT22;62306;52.516;13.290;2022-10-16T01:48:29;15.50;91.40
73955;DHT22;62306;52.516;13.290;2022-10-16T01:51:01;15.50;91.40
73955;DHT22;62306;52.516;13.290;2022-10-16T01:53:29;15.50;91.40
73955;DHT22;62306;52.516;13.290;2022-10-16T01:55:59;15.50;91.50
73955;DHT22;62306;52.516;13.290;2022-10-16T01:58:29;15.40;91.60
73955;DHT22;62306;52.516;13.290;2022-10-16T02:01:00;15.40;91.70
73955;DHT22;62306;52.516;13.290;2022-10-16T02:03:28;15.50;91.70
73955;DHT22;62306;52.516;13.290;2022-10-16T02:05:57;15.50;91.60
73955;DHT22;62306;52.516;13.290;2022-10-16T02:08:25;15.50;91.50
73955;DHT22;62306;52.516;13.290;2022-10-16T02:10:54;15.50;91.50
73955;DHT22;62306;52.516;13.290;2022-10-16T02:13:26;15.50;91.40
73955;DHT22;62306;52.516;13.290;2022-10-16T02:15:55;15.50;91.40
73955;DHT22;62306;52.516;13.290;2022-10-16T02:18:22;15.50;91.40
73955;DHT22;62306;52.516;13.290;2022-10-16T02:20:56;15.50;91.40
73955;DHT22;62306;52.516;13.290;2022-10-16T02:23:31;15.50;91.40
73955;DHT22;62306;52.516;13.290;2022-10-16T02:26:02;15.50;91.40
73955;DHT22;62306;52.516;13.290;2022-10-16T02:28:34;15.50;91.40
73955;DHT22;62306;52.516;13.290;2022-10-16T02:31:08;15.60;91.40
73955;DHT22;62306;52.516;13.290;2022-10-16T02:33:37;15.60;91.40
73955;DHT22;62306;52.516;13.290;2022-10-16T02:36:06;15.60;91.40
73955;DHT22;62306;52.516;13.290;2022-10-16T02:38:33;15.60;91.40
73955;DHT22;62306;52.516;13.290;2022-10-16T02:41:00;15.60;91.20
73955;DHT22;62306;52.516;13.290;2022-10-16T02:43:27;15.60;91.20
73955;DHT22;62306;52.516;13.290;2022-10-16T02:45:55;15.60;91.20
73955;DHT22;62306;52.516;13.290;2022-10-16T02:48:23;15.50;91.20
73955;DHT22;62306;52.516;13.290;2022-10-16T02:50:50;15.60;91.20
73955;DHT22;62306;52.516;13.290;2022-10-16T02:53:17;15.60;91.20
73955;DHT22;62306;52.516;13.290;2022-10-16T02:55:43;15.60;91.20
73955;DHT22;62306;52.516;13.290;2022-10-16T02:58:10;15.60;91.30
73955;DHT22;62306;52.516;13.290;2022-10-16T03:00:37;15.50;91.30
73955;DHT22;62306;52.516;13.290;2022-10-16T03:03:04;15.50;91.30
73955;DHT22;62306;52.516;13.290;2022-10-16T03:05:32;15.50;91.40
73955;DHT22;62306;52.516;13.290;2022-10-16T03:07:59;15.40;91.40
73955;DHT22;62306;52.516;13.290;2022-10-16T03:10:26;15.50;91.50
73955;DHT22;62306;52.516;13.290;2022-10-16T03:12:53;15.40;91.60
73955;DHT22;62306;52.516;13.290;2022-10-16T03:15:20;15.40;91.70
73955;DHT22;62306;52.516;13.290;2022-10-16T03:17:47;15.30;91.80
73955;DHT22;62306;52.516;13.290;2022-10-16T03:20:14;15.30;91.90
73955;DHT22;62306;52.516;13.290;2022-10-16T03:22:43;15.30;91.90
73955;DHT22;62306;52.516;13.290;2022-10-16T03:25:09;15.30;92.00
73955;DHT22;62306;52.516;13.290;2022-10-16T03:27:36;15.20;92.10
73955;DHT22;62306;52.516;13.290;2022-10-16T03:30:04;15.20;92.10
73955;DHT22;62306;52.516;13.290;2022-10-16T03:32:31;15.20;92.10
73955;DHT22;62306;52.516;13.290;2022-10-16T03:34:58;15.10;92.20
73955;DHT22;62306;52.516;13.290;2022-10-16T03:37:25;15.10;92.30
73955;DHT22;62306;52.516;13.290;2022-10-16T03:39:53;15.10;92.40
73955;DHT22;62306;52.516;13.290;2022-10-16T03:42:20;15.00;92.40
73955;DHT22;62306;52.516;13.290;2022-10-16T03:44:47;15.00;92.50
73955;DHT22;62306;52.516;13.290;2022-10-16T03:47:14;15.00;92.60
73955;DHT22;62306;52.516;13.290;2022-10-16T03:49:41;15.00;92.60
73955;DHT22;62306;52.516;13.290;2022-10-16T03:52:07;15.00;92.70
73955;DHT22;62306;52.516;13.290;2022-10-16T03:54:34;15.00;92.70
73955;DHT22;62306;52.516;13.290;2022-10-16T03:57:02;15.10;92.60
73955;DHT22;62306;52.516;13.290;2022-10-16T03:59:29;15.10;92.60
73955;DHT22;62306;52.516;13.290;2022-10-16T04:01:56;15.10;92.50
73955;DHT22;62306;52.516;13.290;2022-10-16T04:04:23;15.10;92.50
73955;DHT22;62306;52.516;13.290;2022-10-16T04:06:51;15.10;92.50
73955;DHT22;62306;52.516;13.290;2022-10-16T04:09:18;15.10;92.60
73955;DHT22;62306;52.516;13.290;2022-10-16T04:11:44;15.10;92.60
73955;DHT22;62306;52.516;13.290;2022-10-16T04:14:13;15.10;92.80
73955;DHT22;62306;52.516;13.290;2022-10-16T04:16:40;15.10;92.80
73955;DHT22;62306;52.516;13.290;2022-10-16T04:19:07;15.00;92.60
73955;DHT22;62306;52.516;13.290;2022-10-16T04:21:34;15.00;92.60
73955;DHT22;62306;52.516;13.290;2022-10-16T04:24:00;15.00;92.60
73955;DHT22;62306;52.516;13.290;2022-10-16T04:26:28;15.00;92.70
73955;DHT22;62306;52.516;13.290;2022-10-16T04:28:55;15.00;92.70
73955;DHT22;62306;52.516;13.290;2022-10-16T04:31:23;15.00;92.70
73955;DHT22;62306;52.516;13.290;2022-10-16T04:33:50;15.00;92.70
73955;DHT22;62306;52.516;13.290;2022-10-16T04:36:16;14.90;92.70
73955;DHT22;62306;52.516;13.290;2022-10-16T04:38:43;14.90;92.70
73955;DHT22;62306;52.516;13.290;2022-10-16T04:41:10;14.90;92.70
73955;DHT22;62306;52.516;13.290;2022-10-16T04:43:37;14.90;92.80
73955;DHT22;62306;52.516;13.290;2022-10-16T04:46:04;14.90;92.80
73955;DHT22;62306;52.516;13.290;2022-10-16T04:48:33;14.90;92.90
73955;DHT22;62306;52.516;13.290;2022-10-16T04:51:00;14.90;92.90
73955;DHT22;62306;52.516;13.290;2022-10-16T04:53:26;14.80;92.90
73955;DHT22;62306;52.516;13.290;2022-10-16T04:55:53;14.80;92.90
73955;DHT22;62306;52.516;13.290;2022-10-16T04:58:21;14.80;92.90
73955;DHT22;62306;52.516;13.290;2022-10-16T05:00:48;14.70;92.90
73955;DHT22;62306;52.516;13.290;2022-10-16T05:03:15;14.80;93.20
73955;DHT22;62306;52.516;13.290;2022-10-16T05:05:44;14.70;93.00
73955;DHT22;62306;52.516;13.290;2022-10-16T05:08:12;14.70;93.10
73955;DHT22;62306;52.516;13.290;2022-10-16T05:10:42;14.70;93.10
73955;DHT22;62306;52.516;13.290;2022-10-16T05:13:10;14.70;93.30
73955;DHT22;62306;52.516;13.290;2022-10-16T05:15:37;14.70;93.20
73955;DHT22;62306;52.516;13.290;2022-10-16T05:18:04;14.70;93.20
73955;DHT22;62306;52.516;13.290;2022-10-16T05:20:30;14.70;93.20
73955;DHT22;62306;52.516;13.290;2022-10-16T05:22:59;14.70;93.20
73955;DHT22;62306;52.516;13.290;2022-10-16T05:25:25;14.70;93.20
73955;DHT22;62306;52.516;13.290;2022-10-16T05:27:52;14.80;93.10
73955;DHT22;62306;52.516;13.290;2022-10-16T05:30:19;14.70;93.00
73955;DHT22;62306;52.516;13.290;2022-10-16T05:32:47;14.80;93.00
73955;DHT22;62306;52.516;13.290;2022-10-16T05:35:14;14.70;92.90
73955;DHT22;62306;52.516;13.290;2022-10-16T05:37:41;14.70;93.00
73955;DHT22;62306;52.516;13.290;2022-10-16T05:40:10;14.80;93.00
73955;DHT22;62306;52.516;13.290;2022-10-16T05:42:38;14.80;92.90
73955;DHT22;62306;52.516;13.290;2022-10-16T05:45:06;14.80;93.00
73955;DHT22;62306;52.516;13.290;2022-10-16T05:47:33;14.90;92.70
73955;DHT22;62306;52.516;13.290;2022-10-16T05:50:00;15.00;92.60
73955;DHT22;62306;52.516;13.290;2022-10-16T05:52:27;15.00;92.50
73955;DHT22;62306;52.516;13.290;2022-10-16T05:54:54;15.00;92.40
73955;DHT22;62306;52.516;13.290;2022-10-16T05:57:22;15.00;92.30
73955;DHT22;62306;52.516;13.290;2022-10-16T05:59:49;15.10;92.30
73955;DHT22;62306;52.516;13.290;2022-10-16T06:02:16;15.10;92.10
73955;DHT22;62306;52.516;13.290;2022-10-16T06:04:42;15.10;92.10
73955;DHT22;62306;52.516;13.290;2022-10-16T06:07:09;15.20;91.90
73955;DHT22;62306;52.516;13.290;2022-10-16T06:09:36;15.20;91.90
73955;DHT22;62306;52.516;13.290;2022-10-16T06:12:03;15.10;92.00
73955;DHT22;62306;52.516;13.290;2022-10-16T06:14:31;15.20;91.90
73955;DHT22;62306;52.516;13.290;2022-10-16T06:16:58;15.20;91.90
73955;DHT22;62306;52.516;13.290;2022-10-16T06:19:25;15.20;91.80
73955;DHT22;62306;52.516;13.290;2022-10-16T06:21:52;15.20;91.70
73955;DHT22;62306;52.516;13.290;2022-10-16T06:24:19;15.30;91.60
73955;DHT22;62306;52.516;13.290;2022-10-16T06:26:46;15.30;91.60
73955;DHT22;62306;52.516;13.290;2022-10-16T06:29:13;15.40;91.50
73955;DHT22;62306;52.516;13.290;2022-10-16T06:31:41;15.40;91.40
73955;DHT22;62306;52.516;13.290;2022-10-16T06:34:09;15.40;91.40
73955;DHT22;62306;52.516;13.290;2022-10-16T06:36:37;15.50;91.20
73955;DHT22;62306;52.516;13.290;2022-10-16T06:39:04;15.50;91.10
73955;DHT22;62306;52.516;13.290;2022-10-16T06:41:33;15.50;91.10
73955;DHT22;62306;52.516;13.290;2022-10-16T06:44:00;15.50;91.20
73955;DHT22;62306;52.516;13.290;2022-10-16T06:46:27;15.60;91.00
73955;DHT22;62306;52.516;13.290;2022-10-16T06:48:55;15.60;91.20
73955;DHT22;62306;52.516;13.290;2022-10-16T06:51:23;15.60;90.80
73955;DHT22;62306;52.516;13.290;2022-10-16T06:53:52;15.70;90.70
73955;DHT22;62306;52.516;13.290;2022-10-16T06:56:21;15.70;90.80
73955;DHT22;62306;52.516;13.290;2022-10-16T06:58:48;15.70;90.60
73955;DHT22;62306;52.516;13.290;2022-10-16T07:01:17;15.80;90.60
73955;DHT22;62306;52.516;13.290;2022-10-16T07:03:45;15.90;90.50
73955;DHT22;62306;52.516;13.290;2022-10-16T07:06:16;16.00;90.10
73955;DHT22;62306;52.516;13.290;2022-10-16T07:08:45;16.20;89.60
73955;DHT22;62306;52.516;13.290;2022-10-16T07:11:14;16.40;88.80
73955;DHT22;62306;52.516;13.290;2022-10-16T07:13:42;16.60;88.00
73955;DHT22;62306;52.516;13.290;2022-10-16T07:16:12;16.70;87.50
73955;DHT22;62306;52.516;13.290;2022-10-16T07:18:39;16.80;86.60
73955;DHT22;62306;52.516;13.290;2022-10-16T07:21:10;16.80;86.50
73955;DHT22;62306;52.516;13.290;2022-10-16T07:23:38;16.80;86.40
73955;DHT22;62306;52.516;13.290;2022-10-16T07:26:06;16.70;87.30
73955;DHT22;62306;52.516;13.290;2022-10-16T07:28:33;16.70;87.00
73955;DHT22;62306;52.516;13.290;2022-10-16T07:31:01;16.70;86.80
73955;DHT22;62306;52.516;13.290;2022-10-16T07:33:29;16.70;87.10
73955;DHT22;62306;52.516;13.290;2022-10-16T07:35:56;16.70;86.90
73955;DHT22;62306;52.516;13.290;2022-10-16T07:38:23;16.70;87.00
73955;DHT22;62306;52.516;13.290;2022-10-16T07:40:57;16.80;86.90
73955;DHT22;62306;52.516;13.290;2022-10-16T07:43:25;16.90;86.60
73955;DHT22;62306;52.516;13.290;2022-10-16T07:45:52;17.00;86.30
73955;DHT22;62306;52.516;13.290;2022-10-16T07:48:19;17.00;86.10
73955;DHT22;62306;52.516;13.290;2022-10-16T07:50:46;16.90;86.10
73955;DHT22;62306;52.516;13.290;2022-10-16T07:53:13;16.90;86.30
73955;DHT22;62306;52.516;13.290;2022-10-16T07:55:41;17.00;86.30
73955;DHT22;62306;52.516;13.290;2022-10-16T07:58:09;16.90;86.30
73955;DHT22;62306;52.516;13.290;2022-10-16T08:00:36;16.90;86.40
73955;DHT22;62306;52.516;13.290;2022-10-16T08:03:03;16.90;86.50
73955;DHT22;62306;52.516;13.290;2022-10-16T08:05:32;16.90;86.50
73955;DHT22;62306;52.516;13.290;2022-10-16T08:08:00;16.90;86.50
73955;DHT22;62306;52.516;13.290;2022-10-16T08:10:28;17.00;86.40
73955;DHT22;62306;52.516;13.290;2022-10-16T08:12:55;17.00;86.40
73955;DHT22;62306;52.516;13.290;2022-10-16T08:15:23;17.10;86.10
73955;DHT22;62306;52.516;13.290;2022-10-16T08:17:58;17.20;85.80
73955;DHT22;62306;52.516;13.290;2022-10-16T08:20:26;17.30;85.50
73955;DHT22;62306;52.516;13.290;2022-10-16T08:22:56;17.30;85.30
73955;DHT22;62306;52.516;13.290;2022-10-16T08:25:24;17.30;85.20
73955;DHT22;62306;52.516;13.290;2022-10-16T08:27:51;17.50;84.90
73955;DHT22;62306;52.516;13.290;2022-10-16T08:30:19;17.50;84.40
73955;DHT22;62306;52.516;13.290;2022-10-16T08:32:48;17.50;84.50
73955;DHT22;62306;52.516;13.290;2022-10-16T08:35:15;17.50;84.50
73955;DHT22;62306;52.516;13.290;2022-10-16T08:37:43;17.50;84.60
73955;DHT22;62306;52.516;13.290;2022-10-16T08:40:17;17.40;84.60
73955;DHT22;62306;52.516;13.290;2022-10-16T08:43:02;17.40;84.90
73955;DHT22;62306;52.516;13.290;2022-10-16T08:45:41;17.50;84.80
73955;DHT22;62306;52.516;13.290;2022-10-16T08:48:17;17.60;84.50
73955;DHT22;62306;52.516;13.290;2022-10-16T08:50:47;17.70;84.10
73955;DHT22;62306;52.516;13.290;2022-10-16T08:53:20;17.70;83.60
73955;DHT22;62306;52.516;13.290;2022-10-16T08:55:50;17.80;83.50
73955;DHT22;62306;52.516;13.290;2022-10-16T08:58:18;17.90;83.10
73955;DHT22;62306;52.516;13.290;2022-10-16T09:00:48;17.90;82.90
73955;DHT22;62306;52.516;13.290;2022-10-16T09:03:40;17.90;83.10
73955;DHT22;62306;52.516;13.290;2022-10-16T09:06:21;18.10;82.50
73955;DHT22;62306;52.516;13.290;2022-10-16T09:09:01;18.40;81.70
73955;DHT22;62306;52.516;13.290;2022-10-16T09:11:39;18.60;80.70
73955;DHT22;62306;52.516;13.290;2022-10-16T09:14:23;18.80;79.40
73955;DHT22;62306;52.516;13.290;2022-10-16T09:16:56;19.00;78.70
73955;DHT22;62306;52.516;13.290;2022-10-16T09:19:29;19.10;78.20
73955;DHT22;62306;52.516;13.290;2022-10-16T09:21:59;19.10;77.80
73955;DHT22;62306;52.516;13.290;2022-10-16T09:24:29;19.10;78.40
73955;DHT22;62306;52.516;13.290;2022-10-16T09:26:56;19.10;77.70
73955;DHT22;62306;52.516;13.290;2022-10-16T09:29:23;19.10;78.30
73955;DHT22;62306;52.516;13.290;2022-10-16T09:31:51;19.10;77.30
73955;DHT22;62306;52.516;13.290;2022-10-16T09:34:27;19.20;77.30
73955;DHT22;62306;52.516;13.290;2022-10-16T09:36:57;19.20;77.20
73955;DHT22;62306;52.516;13.290;2022-10-16T09:39:25;19.20;76.90
73955;DHT22;62306;52.516;13.290;2022-10-16T09:41:53;19.20;76.90
73955;DHT22;62306;52.516;13.290;2022-10-16T09:44:24;19.30;77.10
73955;DHT22;62306;52.516;13.290;2022-10-16T09:47:01;19.30;76.60
73955;DHT22;62306;52.516;13.290;2022-10-16T09:49:30;19.30;75.90
73955;DHT22;62306;52.516;13.290;2022-10-16T09:52:04;19.20;75.90
73955;DHT22;62306;52.516;13.290;2022-10-16T09:54:31;19.00;76.50
73955;DHT22;62306;52.516;13.290;2022-10-16T09:57:05;18.90;77.20
73955;DHT22;62306;52.516;13.290;2022-10-16T09:59:32;18.90;77.00
73955;DHT22;62306;52.516;13.290;2022-10-16T10:02:03;19.00;77.50
73955;DHT22;62306;52.516;13.290;2022-10-16T10:04:40;19.10;76.60
73955;DHT22;62306;52.516;13.290;2022-10-16T10:07:17;19.30;76.30
73955;DHT22;62306;52.516;13.290;2022-10-16T10:09:45;19.40;75.30
73955;DHT22;62306;52.516;13.290;2022-10-16T10:12:21;19.40;75.40
73955;DHT22;62306;52.516;13.290;2022-10-16T10:14:49;19.30;75.50
73955;DHT22;62306;52.516;13.290;2022-10-16T10:17:19;19.30;75.30
73955;DHT22;62306;52.516;13.290;2022-10-16T10:19:50;19.30;75.00
73955;DHT22;62306;52.516;13.290;2022-10-16T10:22:23;19.40;75.00
73955;DHT22;62306;52.516;13.290;2022-10-16T10:25:10;19.40;74.90
73955;DHT22;62306;52.516;13.290;2022-10-16T10:27:46;19.40;74.80
73955;DHT22;62306;52.516;13.290;2022-10-16T10:30:19;19.30;75.00
73955;DHT22;62306;52.516;13.290;2022-10-16T10:32:57;19.20;75.00
73955;DHT22;62306;52.516;13.290;2022-10-16T10:35:36;19.20;75.60
73955;DHT22;62306;52.516;13.290;2022-10-16T10:38:20;19.20;75.40
73955;DHT22;62306;52.516;13.290;2022-10-16T10:40:52;19.30;74.80
73955;DHT22;62306;52.516;13.290;2022-10-16T10:43:34;19.30;75.20
73955;DHT22;62306;52.516;13.290;2022-10-16T10:46:07;19.60;74.60
73955;DHT22;62306;52.516;13.290;2022-10-16T10:48:48;19.90;72.90
73955;DHT22;62306;52.516;13.290;2022-10-16T10:51:22;20.20;71.70
73955;DHT22;62306;52.516;13.290;2022-10-16T10:53:58;20.30;71.20
73955;DHT22;62306;52.516;13.290;2022-10-16T10:56:41;20.40;70.60
73955;DHT22;62306;52.516;13.290;2022-10-16T10:59:32;20.60;70.00
73955;DHT22;62306;52.516;13.290;2022-10-16T11:02:09;21.00;68.80
73955;DHT22;62306;52.516;13.290;2022-10-16T11:04:49;21.30;66.90
73955;DHT22;62306;52.516;13.290;2022-10-16T11:07:25;21.60;66.30
73955;DHT22;62306;52.516;13.290;2022-10-16T11:09:57;21.60;66.00
73955;DHT22;62306;52.516;13.290;2022-10-16T11:12:29;21.60;64.70
73955;DHT22;62306;52.516;13.290;2022-10-16T11:15:02;21.40;65.00
73955;DHT22;62306;52.516;13.290;2022-10-16T11:17:33;21.10;65.90
73955;DHT22;62306;52.516;13.290;2022-10-16T11:20:12;21.00;65.90
73955;DHT22;62306;52.516;13.290;2022-10-16T11:22:44;20.90;66.20
73955;DHT22;62306;52.516;13.290;2022-10-16T11:25:16;20.70;66.60
73955;DHT22;62306;52.516;13.290;2022-10-16T11:27:49;20.60;66.80
73955;DHT22;62306;52.516;13.290;2022-10-16T11:30:20;20.50;67.60
73955;DHT22;62306;52.516;13.290;2022-10-16T11:33:01;20.40;67.50
73955;DHT22;62306;52.516;13.290;2022-10-16T11:35:38;20.40;67.70
73955;DHT22;62306;52.516;13.290;2022-10-16T11:38:13;20.20;68.10
73955;DHT22;62306;52.516;13.290;2022-10-16T11:40:43;20.10;68.70
73955;DHT22;62306;52.516;13.290;2022-10-16T11:43:17;19.90;68.40
73955;DHT22;62306;52.516;13.290;2022-10-16T11:45:49;19.90;68.40
73955;DHT22;62306;52.516;13.290;2022-10-16T11:48:24;19.90;68.40
73955;DHT22;62306;52.516;13.290;2022-10-16T11:50:54;20.10;67.70
73955;DHT22;62306;52.516;13.290;2022-10-16T11:53:34;20.10;67.10
73955;DHT22;62306;52.516;13.290;2022-10-16T11:56:05;20.00;66.90
73955;DHT22;62306;52.516;13.290;2022-10-16T11:58:37;19.90;67.00
73955;DHT22;62306;52.516;13.290;2022-10-16T12:01:17;19.70;67.20
73955;DHT22;62306;52.516;13.290;2022-10-16T12:03:48;19.60;67.30
73955;DHT22;62306;52.516;13.290;2022-10-16T12:06:25;19.40;67.30
73955;DHT22;62306;52.516;13.290;2022-10-16T12:08:59;19.50;67.90
73955;DHT22;62306;52.516;13.290;2022-10-16T12:11:35;19.50;66.60
73955;DHT22;62306;52.516;13.290;2022-10-16T12:14:17;19.70;66.00
73955;DHT22;62306;52.516;13.290;2022-10-16T12:16:53;19.90;65.00
73955;DHT22;62306;52.516;13.290;2022-10-16T12:19:22;20.10;64.40
73955;DHT22;62306;52.516;13.290;2022-10-16T12:21:50;20.40;63.60
73955;DHT22;62306;52.516;13.290;2022-10-16T12:24:30;20.50;63.30
73955;DHT22;62306;52.516;13.290;2022-10-16T12:26:58;20.60;62.80
73955;DHT22;62306;52.516;13.290;2022-10-16T12:29:33;20.60;62.80
73955;DHT22;62306;52.516;13.290;2022-10-16T12:32:00;20.70;61.90
73955;DHT22;62306;52.516;13.290;2022-10-16T12:34:32;20.80;61.40
73955;DHT22;62306;52.516;13.290;2022-10-16T12:37:08;20.90;60.10
73955;DHT22;62306;52.516;13.290;2022-10-16T12:39:38;20.90;60.70
73955;DHT22;62306;52.516;13.290;2022-10-16T12:42:20;20.90;60.80
73955;DHT22;62306;52.516;13.290;2022-10-16T12:44:47;21.10;59.20
73955;DHT22;62306;52.516;13.290;2022-10-16T12:47:21;21.00;59.10
73955;DHT22;62306;52.516;13.290;2022-10-16T12:49:49;20.90;59.70
73955;DHT22;62306;52.516;13.290;2022-10-16T12:52:27;20.90;59.10
73955;DHT22;62306;52.516;13.290;2022-10-16T12:54:57;21.00;59.30
73955;DHT22;62306;52.516;13.290;2022-10-16T12:57:43;21.00;59.00
73955;DHT22;62306;52.516;13.290;2022-10-16T13:00:18;21.00;58.90
73955;DHT22;62306;52.516;13.290;2022-10-16T13:03:14;20.90;59.40
73955;DHT22;62306;52.516;13.290;2022-10-16T13:05:57;20.90;58.30
73955;DHT22;62306;52.516;13.290;2022-10-16T13:08:39;20.70;59.50
73955;DHT22;62306;52.516;13.290;2022-10-16T13:11:19;20.50;59.60
73955;DHT22;62306;52.516;13.290;2022-10-16T13:14:03;20.30;60.30
73955;DHT22;62306;52.516;13.290;2022-10-16T13:16:42;20.20;60.70
73955;DHT22;62306;52.516;13.290;2022-10-16T13:19:17;20.30;60.70
73955;DHT22;62306;52.516;13.290;2022-10-16T13:21:51;20.50;58.90
73955;DHT22;62306;52.516;13.290;2022-10-16T13:24:30;20.60;58.50
73955;DHT22;62306;52.516;13.290;2022-10-16T13:27:09;20.80;57.90
73955;DHT22;62306;52.516;13.290;2022-10-16T13:29:38;20.90;58.00
73955;DHT22;62306;52.516;13.290;2022-10-16T13:32:09;20.90;57.80
73955;DHT22;62306;52.516;13.290;2022-10-16T13:34:44;20.90;56.30
73955;DHT22;62306;52.516;13.290;2022-10-16T13:37:18;20.90;56.90
73955;DHT22;62306;52.516;13.290;2022-10-16T13:39:45;20.80;57.70
73955;DHT22;62306;52.516;13.290;2022-10-16T13:42:18;20.70;57.50
73955;DHT22;62306;52.516;13.290;2022-10-16T13:44:49;20.60;57.50
73955;DHT22;62306;52.516;13.290;2022-10-16T13:47:18;20.60;57.10
73955;DHT22;62306;52.516;13.290;2022-10-16T13:49:46;20.60;56.80
73955;DHT22;62306;52.516;13.290;2022-10-16T13:52:18;20.70;56.50
73955;DHT22;62306;52.516;13.290;2022-10-16T13:54:45;20.60;56.70
73955;DHT22;62306;52.516;13.290;2022-10-16T13:57:15;20.50;56.90
73955;DHT22;62306;52.516;13.290;2022-10-16T13:59:44;20.40;57.20
73955;DHT22;62306;52.516;13.290;2022-10-16T14:02:19;20.40;57.80
73955;DHT22;62306;52.516;13.290;2022-10-16T14:04:47;20.30;58.30
73955;DHT22;62306;52.516;13.290;2022-10-16T14:07:20;20.20;58.60
73955;DHT22;62306;52.516;13.290;2022-10-16T14:09:50;20.20;58.30
73955;DHT22;62306;52.516;13.290;2022-10-16T14:12:19;20.20;58.70
73955;DHT22;62306;52.516;13.290;2022-10-16T14:14:48;20.20;58.70
73955;DHT22;62306;52.516;13.290;2022-10-16T14:17:17;20.20;59.10
73955;DHT22;62306;52.516;13.290;2022-10-16T14:19:46;20.00;59.20
73955;DHT22;62306;52.516;13.290;2022-10-16T14:22:28;20.00;59.60
73955;DHT22;62306;52.516;13.290;2022-10-16T14:24:56;20.10;59.90
73955;DHT22;62306;52.516;13.290;2022-10-16T14:27:30;20.10;59.90
73955;DHT22;62306;52.516;13.290;2022-10-16T14:30:16;20.10;60.00
73955;DHT22;62306;52.516;13.290;2022-10-16T14:32:53;20.10;60.60
73955;DHT22;62306;52.516;13.290;2022-10-16T14:35:26;20.00;60.20
73955;DHT22;62306;52.516;13.290;2022-10-16T14:37:54;19.90;60.70
73955;DHT22;62306;52.516;13.290;2022-10-16T14:40:23;19.90;60.70
73955;DHT22;62306;52.516;13.290;2022-10-16T14:42:53;19.90;61.00
73955;DHT22;62306;52.516;13.290;2022-10-16T14:45:21;19.90;60.70
73955;DHT22;62306;52.516;13.290;2022-10-16T14:47:52;19.90;60.10
73955;DHT22;62306;52.516;13.290;2022-10-16T14:50:20;19.90;60.10
73955;DHT22;62306;52.516;13.290;2022-10-16T14:52:47;19.80;60.60
73955;DHT22;62306;52.516;13.290;2022-10-16T14:55:14;19.60;61.10
73955;DHT22;62306;52.516;13.290;2022-10-16T14:57:43;19.60;61.30
73955;DHT22;62306;52.516;13.290;2022-10-16T15:00:17;19.60;61.30
73955;DHT22;62306;52.516;13.290;2022-10-16T15:02:44;19.50;61.40
73955;DHT22;62306;52.516;13.290;2022-10-16T15:05:15;19.50;62.00
73955;DHT22;62306;52.516;13.290;2022-10-16T15:07:42;19.40;61.10
73955;DHT22;62306;52.516;13.290;2022-10-16T15:10:09;19.30;61.70
73955;DHT22;62306;52.516;13.290;2022-10-16T15:12:36;19.30;61.00
73955;DHT22;62306;52.516;13.290;2022-10-16T15:15:21;19.40;60.60
73955;DHT22;62306;52.516;13.290;2022-10-16T15:17:50;19.30;60.10
73955;DHT22;62306;52.516;13.290;2022-10-16T15:20:18;19.20;60.60
73955;DHT22;62306;52.516;13.290;2022-10-16T15:22:45;19.10;61.20
73955;DHT22;62306;52.516;13.290;2022-10-16T15:25:25;19.00;61.10
73955;DHT22;62306;52.516;13.290;2022-10-16T15:27:52;19.00;61.30
73955;DHT22;62306;52.516;13.290;2022-10-16T15:30:21;18.90;61.50
73955;DHT22;62306;52.516;13.290;2022-10-16T15:32:48;18.80;61.80
73955;DHT22;62306;52.516;13.290;2022-10-16T15:35:14;18.80;61.80